• Join FlightAware (Why Join?)
  • Login
  • US Flag 
10:17PM EDT


 

Airport Tracker/Info


-or-


 

Live Flight TrackerFlight Track Log ✈ ASQ4225 ✈ 10-May-2012 ✈ KCHS - KIAH

Flight Track Log - Related Links

Times and Time Zones

All times are in EDT time to prevent confusion due to time zone crossing. See the ASQ4225 flight status page for this flight to view local times or setup timezone preferences in your user account.

Time Position Orientation Groundspeed Altitude Reporting Facility
EDT Latitude Longitude Course Direction KTS MPH feet Rate Location/Type
05:11PM 32.9300 -80.1431 271° West 218 251 3,600  Level Jacksonville Center
05:12PM 32.9317 -80.2222 271° West 238 274 5,900 2,580 Climbing Jacksonville Center
05:13PM 32.9333 -80.3061 271° West 251 289 8,800 2,280 Climbing Jacksonville Center
05:14PM 32.9353 -80.3978 249° West 256 295 10,500 1,560 Climbing Jacksonville Center
05:15PM 32.9036 -80.4950 243° Southwest 290 334 12,000 1,800 Climbing Jacksonville Center
05:16PM 32.8617 -80.5950 244° Southwest 317 365 14,100 1,920 Climbing Jacksonville Center
05:17PM 32.8217 -80.6925 244° Southwest 323 372 15,900 1,680 Climbing Jacksonville Center
05:18PM 32.7797 -80.7947 244° Southwest 336 387 17,500 1,740 Climbing Jacksonville Center
05:19PM 32.7375 -80.8972 243° Southwest 342 394 19,400 1,860 Climbing Jacksonville Center
05:20PM 32.6950 -80.9967 244° Southwest 342 394 21,300 1,800 Climbing Jacksonville Center
05:21PM 32.6589 -81.0864 244° Southwest 342 394 23,100 1,860 Climbing Jacksonville Center
05:22PM 32.6144 -81.1958 244° Southwest 342 394 25,100 1,740 Climbing Jacksonville Center
05:23PM 32.5739 -81.2928 242° Southwest 337 388 26,600 1,440 Climbing Jacksonville Center
05:24PM 32.5314 -81.3894 245° Southwest 337 388 28,000 660 Climbing Jacksonville Center
05:25PM 32.4947 -81.4836 243° Southwest 344 396 28,000 120 Level Jacksonville Center
05:26PM 32.4419 -81.6050 244° Southwest 369 425 28,300 780 Climbing Jacksonville Center
05:27PM 32.4011 -81.7042 243° Southwest 379 436 29,600 1,380 Climbing Jacksonville Center
05:28PM 32.3539 -81.8131 261° West 379 436 31,100 1,200 Climbing Jacksonville Center
05:29PM 32.3361 -81.9386 269° West 363 418 32,000 720 Climbing Jacksonville Center
05:31PM 32.3331 -82.1386 269° West 375 432 33,000 720 Climbing Atlanta Center
05:32PM 32.3306 -82.2592 270° West 375 432 34,000 480 Climbing Atlanta Center
05:33PM 32.3303 -82.3894 269° West 384 442 34,000 60 Level Atlanta Center
05:34PM 32.3278 -82.5150 269° West 390 449 34,200 960 Climbing Atlanta Center
05:35PM 32.3253 -82.6428 272° West 395 455 36,000 900 Climbing Atlanta Center
05:36PM 32.3286 -82.7656 268° West 388 447 36,000  Level Atlanta Center
05:37PM 32.3256 -82.8933 269° West 383 441 36,000  Level Atlanta Center
05:38PM 32.3228 -83.0261 268° West 388 447 36,000  Level Atlanta Center
05:39PM 32.3194 -83.1539 269° West 393 452 36,000  Level Atlanta Center
05:40PM 32.3183 -83.2867 268° West 399 459 36,000  Level Atlanta Center
05:41PM 32.3147 -83.4169 268° West 399 459 36,000  Level Atlanta Center
05:42PM 32.3111 -83.5447 268° West 399 459 36,000  Level Atlanta Center
05:43PM 32.3075 -83.6775 269° West 399 459 36,000  Level Atlanta Center
05:44PM 32.3058 -83.8053 268° West 404 465 36,000  Level Atlanta Center
05:45PM 32.3017 -83.9381 269° West 404 465 36,000  Level Atlanta Center
05:46PM 32.2997 -84.0708 268° West 404 465 36,000  Level Atlanta Center
05:47PM 32.2956 -84.1986 268° West 404 465 36,000  Level Atlanta Center
05:48PM 32.2911 -84.3314 269° West 404 465 36,000  Level Atlanta Center
05:49PM 32.2886 -84.4614 268° West 404 465 36,000  Level Atlanta Center
05:50PM 32.2839 -84.5967 267° West 404 465 36,000  Level Atlanta Center
05:51PM 32.2789 -84.7292 269° West 404 465 36,000  Level Atlanta Center
05:52PM 32.2761 -84.8569 269° West 394 453 36,000  Level Atlanta Center
05:53PM 32.2731 -84.9919 267° West 406 467 36,000  Level Atlanta Center
05:54PM 32.2678 -85.1247 268° West 406 467 36,000  Level Atlanta Center
05:55PM 32.2647 -85.2450 267° West 411 473 36,000  Level Atlanta Center
05:56PM 32.2567 -85.4167 268° West 406 467 36,000  Level Atlanta Center
05:57PM 32.2531 -85.5492 268° West 401 461 36,000  Level Atlanta Center
05:58PM 32.2492 -85.6842 265° West 406 467 36,000  Level Atlanta Center
05:59PM 32.2389 -85.8192 269° West 412 474 36,000  Level Atlanta Center
06:00PM 32.2369 -85.9542 267° West 412 474 36,000  Level Atlanta Center
06:01PM 32.2306 -86.0867 270° West 412 474 36,000  Level Atlanta Center
06:02PM 32.2306 -86.2119 256° West 418 481 36,000  Level Atlanta Center
06:03PM 32.1986 -86.3583 232° Southwest 418 481 36,000  Level Atlanta Center
06:04PM 32.1364 -86.4525 230° Southwest 402 463 36,000  Level Atlanta Center
06:05PM 32.0589 -86.5606 229° Southwest 418 481 36,000  Level Atlanta Center
06:06PM 31.9839 -86.6614 227° Southwest 424 488 36,000  Level Atlanta Center
06:07PM 31.9003 -86.7664 230° Southwest 415 478 36,000  Level Atlanta Center
06:08PM 31.8378 -86.8550 230° Southwest 405 466 36,000  Level Atlanta Center
06:09PM 31.7686 -86.9506 228° Southwest 397 457 36,000  Level Atlanta Center
06:10PM 31.7019 -87.0386 232° Southwest 381 438 36,000  Level Atlanta Center
06:11PM 31.6389 -87.1342 229° Southwest 376 433 36,000  Level Atlanta Center
06:12PM 31.5700 -87.2269 229° Southwest 376 433 36,000  Level Atlanta Center
06:14PM 31.3953 -87.4617 229° Southwest 383 441 36,000  Level Houston Center
06:15PM 31.3231 -87.5597 229° Southwest 396 456 36,000  Level Houston Center
06:16PM 31.2511 -87.6572 233° Southwest 401 461 36,000  Level Houston Center
06:17PM 31.1911 -87.7494 246° West 401 461 36,000  Level Houston Center
06:18PM 31.1486 -87.8625 248° West 384 442 36,000  Level Houston Center
06:19PM 31.1100 -87.9756 247° West 384 442 36,000 -60 Level Houston Center
06:20PM 31.0692 -88.0861 248° West 384 442 35,900  Descending Houston Center
06:21PM 31.0283 -88.2014 251° West 384 442 36,000  Climbing Houston Center
06:22PM 30.9936 -88.3164 246° West 384 442 36,000  Level Houston Center
06:23PM 30.9506 -88.4292 248° West 384 442 36,000  Level Houston Center
06:24PM 30.9114 -88.5442 245° Southwest 384 442 36,000  Level Houston Center
06:25PM 30.8661 -88.6592 248° West 384 442 36,000  Level Houston Center
06:26PM 30.8247 -88.7767 247° West 384 442 36,000  Level Houston Center
06:27PM 30.7794 -88.9011 250° West 384 442 36,000  Level Houston Center
06:28PM 30.7481 -89.0033 247° West 378 435 36,000  Level Houston Center
06:29PM 30.7064 -89.1181 248° West 378 435 36,000  Level Houston Center
06:30PM 30.6647 -89.2350 247° West 383 441 36,000  Level Houston Center
06:31PM 30.6231 -89.3494 248° West 389 448 36,000  Level Houston Center
06:32PM 30.5831 -89.4636 247° West 389 448 36,000  Level Houston Center
06:33PM 30.5411 -89.5803 248° West 395 455 36,000  Level Houston Center
06:34PM 30.4972 -89.7089 246° West 395 455 36,000  Level Houston Center
06:35PM 30.4528 -89.8253 248° West 395 455 36,000  Level Houston Center
06:36PM 30.4086 -89.9489 247° West 401 461 36,000  Level Houston Center
06:37PM 30.3661 -90.0628 245° Southwest 401 461 36,000  Level Houston Center
06:38PM 30.3194 -90.1789 248° West 396 456 36,000  Level Houston Center
06:39PM 30.2789 -90.2950 247° West 396 456 36,000 -60 Level Houston Center
06:40PM 30.2361 -90.4133 245° Southwest 396 456 35,900 -60 Descending Houston Center
06:41PM 30.1892 -90.5317 247° West 396 456 35,900  Level Houston Center
06:42PM 30.1464 -90.6500 247° West 396 456 36,000  Climbing Houston Center
06:43PM 30.1033 -90.7678 246° West 396 456 36,000  Level Houston Center
06:44PM 30.0581 -90.8836 248° West 396 456 36,000  Level Houston Center
06:45PM 30.0169 -91.0036 246° West 396 456 36,000  Level Houston Center
06:46PM 29.9717 -91.1192 246° West 396 456 36,000  Level Houston Center
06:48PM 29.8825 -91.3544 246° West 396 456 36,000  Level Houston Center
06:49PM 29.8367 -91.4719 248° West 396 456 36,000  Level Houston Center
06:50PM 29.7950 -91.5892 243° Southwest 396 456 36,000 -420 Level Houston Center
06:51PM 29.7450 -91.7042 248° West 396 456 35,200 -1,320 Descending Houston Center
06:52PM 29.7075 -91.8094 246° West 396 456 33,400 -1,620 Descending Houston Center
06:53PM 29.6614 -91.9264 246° West 396 456 32,000 -720 Descending Houston Center
06:54PM 29.6150 -92.0458 246° West 396 456 32,000  Level Houston Center
06:55PM 29.5686 -92.1650 246° West 406 467 32,000  Level Houston Center
06:56PM 29.5222 -92.2867 245° Southwest 406 467 32,000 -60 Level Houston Center
06:57PM 29.4714 -92.4128 264° West 420 483 31,900  Descending Houston Center
06:58PM 29.4603 -92.5414 273° West 420 483 32,000  Climbing Houston Center
06:59PM 29.4656 -92.6753 273° West 415 478 32,000  Level Houston Center
07:00PM 29.4708 -92.8064 274° West 415 478 32,000  Level Houston Center
07:01PM 29.4781 -92.9403 272° West 420 483 32,000  Level Houston Center
07:02PM 29.4828 -93.0833 272° West 420 483 32,000  Level Houston Center
07:03PM 29.4878 -93.2172 272° West 420 483 32,000 -720 Level Houston Center
07:04PM 29.4922 -93.3508 273° West 420 483 30,600 -1,620 Descending Houston Center
07:05PM 29.4989 -93.4847 272° West 420 483 28,800 -1,980 Descending Houston Center
07:06PM 29.5033 -93.6136 273° West 420 483 26,700 -2,340 Descending Houston Center
07:07PM 29.5081 -93.7306 273° West 403 464 24,200 -2,700 Descending Houston Center
07:08PM 29.5144 -93.8525 274° West 389 448 21,300 -2,940 Descending Houston Center
07:09PM 29.5208 -93.9719 271° West 383 441 18,400 -3,000 Descending Houston Center
07:10PM 29.5231 -94.0867 273° West 383 441 15,400 -3,000 Descending Houston Center
07:11PM 29.5261 -94.1464 272° West 350 403 13,700 -1,440 Descending Houston Center
07:12PM 29.5300 -94.2683 278° West 332 382 13,000 -420 Descending Houston Center
07:13PM 29.5425 -94.3736 296° West 322 371 12,900 -720 Descending Houston Center
07:14PM 29.5786 -94.4581 297° West 289 333 11,600 -1,620 Descending Houston Center
07:15PM 29.6164 -94.5450 297° West 291 335 9,700 -1,920 Descending Houston Center
07:16PM 29.6522 -94.6272 296° West 291 335 7,800 -1,800 Descending Houston Center
07:17PM 29.6878 -94.7119 296° West 282 325 6,100 -840 Descending Houston Center
07:18PM 29.7256 -94.8017 298° West 282 325 6,000 -60 Descending Houston Center
07:19PM 29.7611 -94.8794 293° West 284 327 6,000  Level Houston Center
07:20PM 29.7944 -94.9689 297° West 288 331 6,000  Level Houston Center
07:21PM 29.8261 -95.0417 296° West 286 329 6,000  Level Houston Center
07:22PM 29.8617 -95.1267 296° West 284 327 6,000  Level Houston Center
07:23PM 29.8969 -95.2117 272° West 280 322 6,000  Level Houston Center
07:24PM 29.8992 -95.2883 270° West 221 254 6,000  Level Houston Center
07:25PM 29.8992 -95.3675 270° West 235 270 6,000  Level Houston Center
07:26PM 29.8989 -95.4489 272° West 240 276 6,000 -300 Level Houston Center
07:27PM 29.9008 -95.5256 307° West 230 265 5,400 -840 Descending Houston Center
07:28PM 29.9350 -95.5772 25° Northeast 238 274 4,400 -1,080 Descending Houston Center
07:29PM 29.9900 -95.5481 90° East 206 237 3,300 -1,080 Descending Houston Center
07:30PM 29.9897 -95.4906 86° East 168 193 2,300 -900 Descending Houston Center
07:31PM 29.9931 -95.4406 91° East 137 158 1,500 -780 Descending Houston Center
07:32PM 29.9922 -95.3972 91° East 131 151 800 -720 Descending Houston Center